| time (UTC) | temp F | wind direction | speed knots | gust knots | rain 1hr in | rain 24hr in | rain mn in | humidity % | barometer mb |
| 20260505063026 | 54 | 221 | 0.0 | 0.0 | 0.00 | 0.00 | 0.00 | 74 | 1007.9 |
| 20260505061523 | 55 | 229 | 0.0 | 0.0 | 0.00 | 0.00 | 0.00 | 73 | 1008.0 |
| 20260505060028 | 55 | 230 | 0.0 | 0.0 | 0.00 | 0.00 | 0.00 | 72 | 1008.0 |
| 20260505054532 | 55 | 219 | 0.0 | 0.0 | 0.00 | 0.00 | 0.00 | 71 | 1008.0 |
| 20260505053017 | 56 | 253 | 0.0 | 0.0 | 0.00 | 0.00 | 0.00 | 70 | 1008.0 |
| 20260505051514 | 56 | 252 | 0.9 | 0.0 | 0.00 | 0.00 | 0.00 | 69 | 1008.0 |
| 20260505041508 | 57 | 262 | 0.9 | 0.0 | 0.00 | 0.00 | 0.00 | 65 | 1008.2 |
| 20260505040007 | 58 | 246 | 0.9 | 0.0 | 0.00 | 0.00 | 0.00 | 64 | 1008.1 |
| 20260505034506 | 58 | 252 | 0.9 | 0.0 | 0.00 | 0.00 | 0.00 | 63 | 1008.0 |
| 20260505033013 | 58 | 255 | 0.9 | 0.0 | 0.00 | 0.00 | 0.00 | 62 | 1008.0 |
| 20260505031505 | 58 | 230 | 0.9 | 0.0 | 0.00 | 0.00 | 0.00 | 60 | 1008.0 |
| 20260505030004 | 59 | 234 | 0.9 | 0.0 | 0.00 | 0.00 | 0.00 | 59 | 1008.0 |
| 20260505024504 | 59 | 215 | 0.9 | 0.0 | 0.00 | 0.00 | 0.00 | 58 | 1008.0 |
| 20260505023003 | 60 | 211 | 0.9 | 0.0 | 0.00 | 0.00 | 0.00 | 56 | 1008.1 |
| 20260505021503 | 60 | 175 | 0.9 | 0.0 | 0.00 | 0.00 | 0.00 | 55 | 1008.1 |
| 20260505020002 | 60 | 100 | 0.9 | 0.0 | 0.00 | 0.00 | 0.00 | 53 | 1008.0 |
| 20260505014507 | 61 | 225 | 0.9 | 0.0 | 0.00 | 0.00 | 0.00 | 52 | 1007.9 |
| 20260505013001 | 61 | 227 | 0.9 | 0.0 | 0.00 | 0.00 | 0.00 | 52 | 1007.7 |
| 20260505011501 | 62 | 223 | 0.9 | 0.0 | 0.00 | 0.00 | 0.00 | 51 | 1007.5 |
| 20260505010103 | 62 | 113 | 0.9 | 0.0 | 0.00 | 0.00 | 0.00 | 50 | 1007.3 |
| 20260505004602 | 63 | 211 | 0.9 | 0.0 | 0.00 | 0.00 | 0.00 | 49 | 1007.0 |
| 20260505003103 | 64 | 204 | 0.9 | 0.0 | 0.00 | 0.00 | 0.00 | 48 | 1006.7 |
| 20260505001559 | 65 | 251 | 0.9 | 0.0 | 0.00 | 0.00 | 0.00 | 47 | 1006.2 |
| 20260504234622 | 66 | 179 | 0.9 | 0.0 | 0.00 | 0.00 | 0.00 | 45 | 1005.6 |
| 20260504233058 | 67 | 230 | 1.7 | 0.0 | 0.00 | 0.00 | 0.00 | 44 | 1005.4 |
| 20260504231605 | 68 | 244 | 0.9 | 0.0 | 0.00 | 0.00 | 0.00 | 43 | 1005.1 |
| 20260504230056 | 69 | 202 | 0.9 | 0.0 | 0.00 | 0.00 | 0.00 | 41 | 1004.7 |
| 20260504224605 | 70 | 227 | 2.6 | 0.0 | 0.00 | 0.00 | 0.00 | 37 | 1004.4 |
| 20260504223054 | 72 | 256 | 0.9 | 0.0 | 0.00 | 0.00 | 0.00 | 36 | 1004.2 |
| 20260504221603 | 73 | 174 | 2.6 | 0.0 | 0.00 | 0.00 | 0.00 | 33 | 1004.0 |
| 20260504220055 | 73 | 175 | 1.7 | 0.0 | 0.00 | 0.00 | 0.00 | 31 | 1004.1 |
| 20260504214555 | 73 | 235 | 2.6 | 0.0 | 0.00 | 0.00 | 0.00 | 31 | 1004.2 |
| 20260504213101 | 74 | 244 | 1.7 | 0.0 | 0.00 | 0.00 | 0.00 | 30 | 1004.0 |
| 20260504211550 | 75 | 259 | 1.7 | 0.0 | 0.00 | 0.00 | 0.00 | 29 | 1004.2 |
| 20260504210056 | 75 | 263 | 1.7 | 0.0 | 0.00 | 0.00 | 0.00 | 29 | 1004.0 |
| 20260504204625 | 75 | 159 | 4.3 | 0.0 | 0.00 | 0.00 | 0.00 | 29 | 1004.1 |
| 20260504203049 | 75 | 254 | 2.6 | 0.0 | 0.00 | 0.00 | 0.00 | 28 | 1004.2 |
| 20260504201546 | 75 | 240 | 3.5 | 0.0 | 0.00 | 0.00 | 0.00 | 28 | 1004.2 |
| 20260504200048 | 75 | 219 | 3.5 | 0.0 | 0.00 | 0.00 | 0.00 | 28 | 1004.4 |
| 20260504194550 | 74 | 208 | 4.3 | 0.0 | 0.00 | 0.00 | 0.00 | 27 | 1004.3 |
| 20260504193045 | 74 | 248 | 2.6 | 0.0 | 0.00 | 0.00 | 0.00 | 27 | 1004.5 |
| 20260504191543 | 74 | 232 | 3.5 | 0.0 | 0.00 | 0.00 | 0.00 | 27 | 1004.5 |
| 20260504190047 | 74 | 162 | 2.6 | 0.0 | 0.00 | 0.00 | 0.00 | 28 | 1004.5 |
| 20260504184548 | 73 | 208 | 3.5 | 0.0 | 0.00 | 0.00 | 0.00 | 27 | 1004.7 |
| 20260504183037 | 74 | 164 | 3.5 | 0.0 | 0.00 | 0.00 | 0.00 | 28 | 1004.7 |
| 20260504181534 | 72 | 198 | 2.6 | 0.0 | 0.00 | 0.00 | 0.00 | 29 | 1004.9 |
| 20260504180032 | 72 | 115 | 4.3 | 0.0 | 0.00 | 0.00 | 0.00 | 30 | 1005.0 |
| 20260504174529 | 72 | 285 | 4.3 | 0.0 | 0.00 | 0.00 | 0.00 | 30 | 1005.2 |
| 20260504173026 | 71 | 172 | 5.2 | 0.0 | 0.00 | 0.00 | 0.00 | 30 | 1005.4 |
| 20260504171537 | 70 | 248 | 4.3 | 0.0 | 0.00 | 0.00 | 0.00 | 31 | 1005.2 |
| 20260504081555 | 46 | 279 | 0.0 | 0.0 | 0.00 | 0.00 | 0.00 | 63 | 1008.1 |